Main page
METAR-TAF:

METAR-TAF

Airports :

Katowice, Poland

Katowice International Airport

latitude: 50-28-27N, longitude: 019-04-48E, elevation: 284 m

Current weather observation

The report was made 34 minutes ago, at 16:00 UTC
Wind 6 kt from the North
Temperature 20°C
Humidity 26%
Pressure 1015 hPa
Visibility 10 km or more
no clouds below 1500 m and no cumulonimbus

METAR: EPKT 221600Z 36006KT CAVOK 20/00 Q1015

Time: 18:34 (16:34 UTC)

Forecast

The report was made 5 hours and 4 minutes ago, at 11:30 UTC
Forecast valid from 22 at 12 UTC to 23 at 12 UTC
Wind 10 kt from the North/Northwest
Visibility 10 km or more
no clouds below 1500 m and no cumulonimbus
Becoming
from 22 at 18 UTC to 22 at 21 UTC
Wind 8 kt from the South/Southeast
Temporary
from 23 at 03 UTC to 23 at 12 UTC
Broken clouds at a height of 3000 ft, Towering cumulus.

TAF: EPKT 221130Z 2212/2312 34010KT CAVOK BECMG 2218/2221 15008KT TEMPO 2303/2312 BKN030TCU

Weather observations and forecasts of more than 4000 airports (METAR and TAF reports).

The available stations are represented by yellow and red dots on the map.

Hover mouse over dot to see the name of the station.

Then click to see weather observations and forecasts.

To change the map : click on the green buttons with a black cross to zoom in, on the green button with a dash to zoom out, or on the green arrows for adjacent maps.


METAR-TAF: